Time;durP1;ratioP1;P1;durP2;ratioP2;P2;SDS_P1;SDS_P2;PMS_P1;PMS_P2;Temp;Humidity;BMP_temperature;BMP_pressure;BME280_temperature;BME280_humidity;BME280_pressure;Samples;Min_cycle;Max_cycle;Signal;HPM_P1;HPM_P2
2024/03/07 00:00:50;;;;;;;17.92;11.27;;;;;;;5.18;100.00;93272.69;2109896;28;20213;-82
2024/03/07 00:01:52;;;;;;;18.65;11.50;;;;;;;5.23;100.00;93271.56;2102429;28;20428;-81
2024/03/07 00:02:54;;;;;;;18.10;11.50;;;;;;;5.17;100.00;93267.75;2104227;28;20470;-83
2024/03/07 00:03:55;;;;;;;17.60;11.45;;;;;;;5.19;100.00;93268.91;2098610;28;20345;-82
2024/03/07 00:04:56;;;;;;;18.58;12.05;;;;;;;5.27;100.00;93265.13;2102418;28;20020;-81
2024/03/07 00:05:57;;;;;;;17.92;11.30;;;;;;;5.22;100.00;93270.03;2116712;28;20157;-82
2024/03/07 00:06:58;;;;;;;18.50;11.00;;;;;;;5.29;100.00;93262.84;2113979;28;20089;-82
2024/03/07 00:07:59;;;;;;;19.40;11.40;;;;;;;5.29;100.00;93259.44;2091158;28;20097;-83
2024/03/07 00:09:00;;;;;;;19.30;11.45;;;;;;;5.34;100.00;93267.00;2082673;28;20029;-82
2024/03/07 00:10:03;;;;;;;17.92;11.43;;;;;;;5.24;100.00;93259.81;2098814;28;20020;-82
2024/03/07 00:11:04;;;;;;;19.20;11.35;;;;;;;5.21;100.00;93263.22;2111188;28;20507;-83
2024/03/07 00:12:06;;;;;;;18.50;11.65;;;;;;;5.27;100.00;93259.84;2116161;28;20026;-83
2024/03/07 00:13:07;;;;;;;16.73;11.23;;;;;;;5.15;100.00;93262.84;2115252;28;20446;-82
2024/03/07 00:14:08;;;;;;;17.05;11.88;;;;;;;5.23;100.00;93253.03;2107150;28;20026;-82
2024/03/07 00:15:11;;;;;;;18.92;11.38;;;;;;;5.07;100.00;93250.72;2107076;28;20039;-83
2024/03/07 00:16:17;;;;;;;18.00;11.35;;;;;;;5.12;100.00;93254.88;2107888;28;20052;-81
2024/03/07 00:17:19;;;;;;;16.60;10.57;;;;;;;5.21;100.00;93255.28;2115375;28;20023;-81
2024/03/07 00:18:20;;;;;;;17.73;11.18;;;;;;;5.22;100.00;93256.78;2107076;28;20061;-82
2024/03/07 00:19:21;;;;;;;16.83;10.93;;;;;;;5.23;100.00;93259.06;2090566;28;20115;-84
2024/03/07 00:20:22;;;;;;;17.80;10.50;;;;;;;5.22;100.00;93260.22;2098495;28;20103;-83
2024/03/07 00:21:23;;;;;;;16.35;10.57;;;;;;;5.28;100.00;93258.69;2106937;28;20531;-81
2024/03/07 00:22:26;;;;;;;18.63;10.52;;;;;;;5.12;100.00;93266.25;2098619;28;20488;-81
2024/03/07 00:23:27;;;;;;;15.13;10.48;;;;;;;4.97;100.00;93262.81;2098762;28;20562;-80
2024/03/07 00:24:28;;;;;;;16.25;10.32;;;;;;;5.12;100.00;93253.00;2098516;28;20031;-81
2024/03/07 00:25:31;;;;;;;17.63;10.70;;;;;;;5.12;100.00;93254.88;2098635;28;20027;-82
2024/03/07 00:26:32;;;;;;;14.95;10.07;;;;;;;5.06;100.00;93254.50;2098170;28;20024;-81
2024/03/07 00:27:33;;;;;;;13.52;9.02;;;;;;;5.17;100.00;93257.16;2098330;28;20423;-82
2024/03/07 00:28:39;;;;;;;13.75;9.40;;;;;;;5.20;100.00;93251.88;2106849;28;20024;-82
2024/03/07 00:29:40;;;;;;;13.02;8.63;;;;;;;5.18;100.00;93251.50;2118567;27;20695;-83
2024/03/07 00:30:42;;;;;;;14.45;9.45;;;;;;;5.26;100.00;93254.91;2096117;28;20111;-83
2024/03/07 00:31:47;;;;;;;11.43;8.32;;;;;;;5.33;100.00;93254.91;2105229;28;20482;-81
2024/03/07 00:32:48;;;;;;;12.43;8.50;;;;;;;5.34;100.00;93253.75;2111810;28;20055;-84
2024/03/07 00:33:49;;;;;;;11.80;8.48;;;;;;;5.24;100.00;93251.88;2106719;28;20087;-84
2024/03/07 00:34:50;;;;;;;12.40;8.13;;;;;;;5.37;100.00;93260.97;2098349;28;20032;-80
2024/03/07 00:35:51;;;;;;;12.23;8.90;;;;;;;5.37;100.00;93253.03;2095381;28;20420;-80
2024/03/07 00:36:52;;;;;;;12.70;8.10;;;;;;;5.30;100.00;93253.00;2090073;28;20029;-79
2024/03/07 00:37:53;;;;;;;11.75;8.30;;;;;;;5.32;100.00;93255.28;2097983;28;20083;-84
2024/03/07 00:38:54;;;;;;;13.10;9.05;;;;;;;5.30;100.00;93251.09;2114162;28;20047;-84
2024/03/07 00:39:55;;;;;;;11.05;7.82;;;;;;;5.32;100.00;93253.41;2106780;28;20024;-82
2024/03/07 00:41:04;;;;;;;11.23;8.05;;;;;;;5.36;100.00;93248.09;2106644;28;20019;-82
2024/03/07 00:42:06;;;;;;;11.93;8.07;;;;;;;5.19;100.00;93252.25;2115202;28;20669;-82
2024/03/07 00:43:07;;;;;;;13.18;8.30;;;;;;;5.24;100.00;93249.97;2098541;28;20841;-81
2024/03/07 00:44:08;;;;;;;9.98;7.38;;;;;;;5.38;100.00;93251.13;2102198;28;20028;-82
2024/03/07 00:45:09;;;;;;;10.50;7.05;;;;;;;5.46;100.00;93252.63;2110056;28;20354;-84
2024/03/07 00:46:10;;;;;;;12.38;7.82;;;;;;;5.26;100.00;93246.94;2083182;28;20082;-81
2024/03/07 00:47:12;;;;;;;11.98;8.40;;;;;;;5.44;100.00;93250.34;2017319;28;20139;-81
2024/03/07 00:48:13;;;;;;;10.70;7.95;;;;;;;5.56;100.00;93249.97;2045037;28;20024;-81
2024/03/07 00:49:14;;;;;;;13.95;8.05;;;;;;;5.50;100.00;93248.84;2051977;28;20039;-79
2024/03/07 00:50:15;;;;;;;11.57;7.72;;;;;;;5.48;100.00;93248.47;2053848;28;20045;-83
2024/03/07 00:51:16;;;;;;;11.65;7.93;;;;;;;5.19;100.00;93244.31;2048641;28;20059;-80
2024/03/07 00:52:19;;;;;;;12.15;8.07;;;;;;;5.41;100.00;93242.41;2050835;28;20052;-81
2024/03/07 00:53:20;;;;;;;11.65;8.43;;;;;;;5.66;100.00;93248.44;2062116;28;20032;-81
2024/03/07 00:54:22;;;;;;;12.02;8.57;;;;;;;5.67;100.00;93249.22;2069546;28;20039;-80
2024/03/07 00:55:23;;;;;;;11.88;8.60;;;;;;;5.53;100.00;93244.66;2068054;28;20036;-79
2024/03/07 00:56:24;;;;;;;12.25;8.63;;;;;;;5.61;100.00;93245.41;2068605;28;20029;-80
2024/03/07 00:57:25;;;;;;;10.50;8.07;;;;;;;5.48;100.00;93248.47;2092752;28;20023;-79
2024/03/07 00:58:27;;;;;;;11.32;8.18;;;;;;;5.58;100.00;93241.66;2110067;27;20072;-82
2024/03/07 00:59:28;;;;;;;13.82;8.45;;;;;;;5.65;100.00;93243.53;2121784;27;20015;-84
2024/03/07 01:00:29;;;;;;;11.52;8.55;;;;;;;5.58;100.00;93240.91;2114800;28;20023;-82
2024/03/07 01:01:31;;;;;;;12.02;8.43;;;;;;;5.66;100.00;93242.38;2123125;27;20019;-82
2024/03/07 01:02:34;;;;;;;11.50;8.52;;;;;;;5.74;100.00;93244.66;2123442;27;20479;-81
2024/03/07 01:03:34;;;;;;;12.10;8.07;;;;;;;5.71;100.00;93242.78;2115142;27;20035;-80
2024/03/07 01:04:35;;;;;;;17.15;8.73;;;;;;;5.67;100.00;93241.25;2106662;28;20024;-83
2024/03/07 01:05:38;;;;;;;14.27;8.32;;;;;;;5.73;100.00;93242.38;2098235;28;20025;-79
2024/03/07 01:06:41;;;;;;;14.45;8.77;;;;;;;5.75;100.00;93234.78;2098828;28;20028;-81
2024/03/07 01:07:42;;;;;;;12.82;8.63;;;;;;;5.74;100.00;93243.88;2097292;28;20473;-80
2024/03/07 01:08:43;;;;;;;11.65;8.13;;;;;;;5.74;100.00;93234.03;2107911;28;20028;-82
2024/03/07 01:09:45;;;;;;;12.90;9.05;;;;;;;5.78;100.00;93242.00;2114819;28;20019;-82
2024/03/07 01:10:46;;;;;;;11.52;8.43;;;;;;;5.77;100.00;93237.84;2115024;28;20016;-82
2024/03/07 01:11:49;;;;;;;11.43;8.15;;;;;;;5.61;100.00;93240.13;2122573;27;20019;-80
2024/03/07 01:12:51;;;;;;;10.65;8.00;;;;;;;5.77;100.00;93240.47;2119069;27;20425;-82
2024/03/07 01:13:52;;;;;;;12.75;7.80;;;;;;;5.86;100.00;93235.53;2114819;28;20027;-79
2024/03/07 01:14:53;;;;;;;9.07;7.40;;;;;;;5.84;100.00;93237.84;2114800;28;20047;-80
2024/03/07 01:15:54;;;;;;;10.00;7.43;;;;;;;5.82;100.00;93243.50;2121118;27;20034;-80
2024/03/07 01:16:55;;;;;;;9.77;7.10;;;;;;;5.84;100.00;93235.19;2096384;28;20028;-79
2024/03/07 01:17:56;;;;;;;10.05;7.22;;;;;;;5.79;100.00;93241.63;2092529;28;20040;-79
2024/03/07 01:18:57;;;;;;;8.80;6.95;;;;;;;5.67;100.00;93230.66;2045642;27;20039;-80
2024/03/07 01:19:58;;;;;;;8.98;6.32;;;;;;;5.67;100.00;93234.06;2046553;27;20027;-78
2024/03/07 01:21:00;;;;;;;8.27;6.38;;;;;;;5.73;100.00;93229.88;2052449;27;20060;-79
2024/03/07 01:22:01;;;;;;;8.98;6.80;;;;;;;5.67;100.00;93230.66;2040577;28;20201;-82
2024/03/07 01:23:02;;;;;;;8.25;6.45;;;;;;;5.79;100.00;93227.59;2048263;28;20492;-82
2024/03/07 01:24:03;;;;;;;9.45;6.90;;;;;;;5.78;100.00;93226.06;2045972;28;20063;-80
2024/03/07 01:25:06;;;;;;;9.32;6.80;;;;;;;5.71;100.00;93234.06;2041618;28;21806;-78
2024/03/07 01:26:08;;;;;;;8.77;6.72;;;;;;;5.62;100.00;93221.19;2054524;28;20028;-81
2024/03/07 01:27:09;;;;;;;7.57;6.45;;;;;;;5.70;100.00;93222.69;2065941;27;20055;-81
2024/03/07 01:28:14;;;;;;;6.82;6.13;;;;;;;5.59;100.00;93231.81;2062622;28;20063;-80
2024/03/07 01:29:15;;;;;;;6.10;5.35;;;;;;;5.59;100.00;93226.50;2058148;28;20036;-78
2024/03/07 01:30:16;;;;;;;8.48;5.85;;;;;;;5.66;100.00;93218.50;2066044;28;20369;-80
2024/03/07 01:31:18;;;;;;;6.78;5.97;;;;;;;5.77;100.00;93221.91;2069371;28;20028;-81
2024/03/07 01:34:35;;;;;;;9.85;7.28;;;;;;;5.77;100.00;93213.97;2105860;28;20380;-81
2024/03/07 01:35:36;;;;;;;13.77;8.80;;;;;;;5.82;100.00;93214.31;2098009;28;20060;-82
2024/03/07 01:36:37;;;;;;;14.02;8.90;;;;;;;5.90;100.00;93216.97;2108352;28;20023;-79
2024/03/07 01:37:38;;;;;;;13.75;9.38;;;;;;;5.79;100.00;93217.75;2097918;28;20124;-81
2024/03/07 01:38:39;;;;;;;14.05;10.05;;;;;;;5.91;100.00;93208.63;2097901;28;20017;-84
2024/03/07 01:39:40;;;;;;;17.05;10.27;;;;;;;5.84;100.00;93205.22;2114641;28;20168;-83
2024/03/07 01:40:45;;;;;;;23.88;12.23;;;;;;;5.84;100.00;93211.31;2114582;28;20051;-81
2024/03/07 01:41:46;;;;;;;23.77;12.32;;;;;;;5.81;100.00;93212.81;2106101;28;20106;-82
2024/03/07 01:42:49;;;;;;;33.15;14.13;;;;;;;5.73;100.00;93210.56;2097880;28;20025;-81
2024/03/07 01:43:50;;;;;;;35.70;13.90;;;;;;;5.73;100.00;93210.56;2106722;28;20416;-80
2024/03/07 01:44:51;;;;;;;48.92;15.77;;;;;;;5.85;100.00;93212.81;2105875;28;20114;-82
2024/03/07 01:45:56;;;;;;;68.47;17.05;;;;;;;5.70;100.00;93211.31;2089671;28;20107;-81
2024/03/07 01:47:03;;;;;;;64.10;18.35;;;;;;;5.76;100.00;93207.16;2101589;28;20032;-80
2024/03/07 01:48:05;;;;;;;61.83;19.10;;;;;;;5.67;100.00;93207.53;2100111;28;20021;-81
2024/03/07 01:49:07;;;;;;;86.95;18.52;;;;;;;5.95;100.00;93204.09;2101097;28;20063;-81
2024/03/07 01:50:08;;;;;;;81.10;19.35;;;;;;;5.80;100.00;93207.91;2103568;28;20033;-83
2024/03/07 01:51:09;;;;;;;96.13;20.13;;;;;;;5.96;100.00;93202.94;2107618;28;20054;-81
2024/03/07 01:52:12;;;;;;;48.92;20.38;;;;;;;5.89;100.00;93199.53;2098972;28;20028;-80
2024/03/07 01:53:14;;;;;;;97.18;19.27;;;;;;;5.76;100.00;93199.19;2091264;28;20032;-80
2024/03/07 01:54:15;;;;;;;127.55;19.92;;;;;;;5.72;100.00;93203.75;2061895;28;20857;-80
2024/03/07 01:55:23;;;;;;;90.60;20.17;;;;;;;5.77;100.00;93196.16;2022020;28;20043;-79
2024/03/07 01:56:24;;;;;;;79.75;20.52;;;;;;;5.85;100.00;93199.56;2062835;28;20019;-80
2024/03/07 01:57:25;;;;;;;73.28;20.40;;;;;;;5.87;100.00;93202.56;2053397;28;20027;-79
2024/03/07 01:58:27;;;;;;;84.15;20.23;;;;;;;5.96;100.00;93200.28;2094340;28;20032;-79
2024/03/07 01:59:30;;;;;;;112.88;20.83;;;;;;;5.76;100.00;93199.94;2035564;28;20150;-80
2024/03/07 02:00:31;;;;;;;126.63;19.27;;;;;;;5.68;100.00;93195.03;2067563;28;20033;-79
2024/03/07 02:01:32;;;;;;;81.70;21.27;;;;;;;5.76;100.00;93196.53;2074319;28;20029;-79
2024/03/07 02:02:34;;;;;;;65.60;20.23;;;;;;;5.79;100.00;93193.88;2074134;28;20077;-80
2024/03/07 02:03:36;;;;;;;71.25;21.20;;;;;;;5.70;100.00;93195.41;2067517;28;20021;-80
2024/03/07 02:04:37;;;;;;;41.72;20.58;;;;;;;5.83;100.00;93188.56;2077637;28;20112;-80
2024/03/07 02:05:38;;;;;;;81.03;20.42;;;;;;;5.79;100.00;93195.75;2074646;28;20043;-82
2024/03/07 02:06:43;;;;;;;116.90;20.75;;;;;;;5.73;100.00;93194.66;2060795;28;20523;-80
2024/03/07 02:07:44;;;;;;;118.25;20.77;;;;;;;5.75;100.00;93193.13;2071481;28;20043;-79
2024/03/07 02:08:45;;;;;;;160.90;21.40;;;;;;;5.74;100.00;93196.91;2059774;28;20052;-79
2024/03/07 02:09:46;;;;;;;88.85;20.75;;;;;;;6.03;100.00;93196.88;2044295;28;20031;-79
2024/03/07 02:10:48;;;;;;;79.43;21.27;;;;;;;6.06;100.00;93193.47;1979181;28;20074;-80
2024/03/07 02:11:49;;;;;;;73.80;20.88;;;;;;;6.00;100.00;93189.66;1951177;28;20032;-79
2024/03/07 02:12:50;;;;;;;161.98;20.67;;;;;;;5.93;100.00;93189.72;1957775;28;20028;-79
2024/03/07 02:13:51;;;;;;;158.55;21.35;;;;;;;5.90;100.00;93187.78;1864608;28;22971;-81
2024/03/07 02:14:52;;;;;;;62.95;22.13;;;;;;;5.97;100.00;93188.56;1922230;28;20051;-79
2024/03/07 02:15:53;;;;;;;46.75;21.40;;;;;;;6.07;100.00;93188.91;1967503;27;23574;-80
2024/03/07 02:16:56;;;;;;;87.53;22.10;;;;;;;5.82;100.00;93192.34;1884043;28;20986;-79
2024/03/07 02:17:57;;;;;;;107.80;21.45;;;;;;;5.79;100.00;93177.19;1875548;28;20032;-80
2024/03/07 02:18:59;;;;;;;68.43;22.30;;;;;;;6.05;100.00;93179.41;1856291;28;20032;-79
2024/03/07 02:20:00;;;;;;;55.13;19.60;;;;;;;5.81;100.00;93186.28;2070345;28;20516;-79
2024/03/07 02:21:06;;;;;;;50.15;20.83;;;;;;;5.94;100.00;93180.59;2088486;27;20031;-80
2024/03/07 02:22:07;;;;;;;51.60;23.13;;;;;;;5.92;100.00;93186.28;2096494;28;20114;-81
2024/03/07 02:23:08;;;;;;;59.83;22.60;;;;;;;5.85;100.00;93183.63;2024678;28;20662;-81
2024/03/07 02:24:09;;;;;;;38.85;21.95;;;;;;;5.80;100.00;93182.13;2032515;28;20120;-79
2024/03/07 02:25:11;;;;;;;38.30;22.35;;;;;;;5.92;100.00;93177.56;2049766;28;20547;-81
2024/03/07 02:26:12;;;;;;;38.72;22.65;;;;;;;5.86;100.00;93182.50;2052428;28;21630;-80
2024/03/07 02:27:17;;;;;;;41.60;22.70;;;;;;;5.94;100.00;93177.97;2067864;28;20094;-80
2024/03/07 02:28:18;;;;;;;40.45;23.13;;;;;;;6.05;100.00;93183.97;2066720;28;22208;-79
2024/03/07 02:29:19;;;;;;;42.22;23.48;;;;;;;6.12;100.00;93178.63;2071680;28;20098;-81
2024/03/07 02:30:20;;;;;;;48.10;23.33;;;;;;;6.14;100.00;93175.59;2067571;28;20127;-80
2024/03/07 02:31:28;;;;;;;39.28;23.42;;;;;;;6.10;100.00;93174.84;2078982;28;20116;-81
2024/03/07 02:32:29;;;;;;;39.33;23.83;;;;;;;6.07;100.00;93181.69;2080461;28;20060;-81
2024/03/07 02:33:32;;;;;;;37.53;22.38;;;;;;;5.96;100.00;93179.06;2086828;28;20020;-80
2024/03/07 02:34:34;;;;;;;60.35;23.67;;;;;;;5.96;100.00;93178.31;2088170;28;20074;-81
2024/03/07 02:35:35;;;;;;;46.30;23.63;;;;;;;5.97;100.00;93175.28;2081388;28;20030;-81
2024/03/07 02:36:38;;;;;;;41.78;24.27;;;;;;;5.78;100.00;93179.09;2089231;28;20025;-82
2024/03/07 02:37:39;;;;;;;38.63;22.77;;;;;;;6.07;100.00;93180.94;2090291;28;20052;-81
2024/03/07 02:38:40;;;;;;;44.67;23.08;;;;;;;6.09;100.00;93174.09;2097519;28;20052;-83
2024/03/07 02:39:41;;;;;;;48.92;23.20;;;;;;;6.01;100.00;93177.91;2114067;28;20027;-80
2024/03/07 02:40:42;;;;;;;38.92;23.27;;;;;;;5.95;100.00;93168.84;2114156;28;20019;-80
2024/03/07 02:41:43;;;;;;;42.53;23.27;;;;;;;5.89;100.00;93173.78;2105723;28;20114;-83
2024/03/07 02:42:44;;;;;;;56.70;23.50;;;;;;;5.95;100.00;93177.56;2105826;28;20689;-81
2024/03/07 02:43:45;;;;;;;44.10;23.52;;;;;;;5.98;100.00;93176.81;2097541;28;20028;-81
2024/03/07 02:44:46;;;;;;;49.13;22.30;;;;;;;5.76;100.00;93173.44;2097316;28;20424;-80
2024/03/07 02:45:47;;;;;;;50.05;23.85;;;;;;;5.87;100.00;93173.38;2097438;28;20099;-80
2024/03/07 02:46:48;;;;;;;51.97;22.73;;;;;;;6.00;100.00;93182.47;2097397;28;20032;-81
2024/03/07 02:47:48;;;;;;;49.13;23.30;;;;;;;5.79;100.00;93177.19;2089268;28;20393;-80
2024/03/07 02:48:49;;;;;;;45.95;23.83;;;;;;;6.00;100.00;93171.84;2080849;28;20029;-80
2024/03/07 02:49:50;;;;;;;41.97;23.38;;;;;;;6.03;100.00;93173.00;2080830;28;20569;-80
2024/03/07 02:50:51;;;;;;;50.00;23.30;;;;;;;5.90;100.00;93169.97;2089193;28;20052;-81
2024/03/07 02:51:54;;;;;;;46.42;24.08;;;;;;;6.04;100.00;93171.84;2104552;28;20062;-81
2024/03/07 02:52:55;;;;;;;41.92;22.98;;;;;;;5.99;100.00;93170.34;2098895;28;20412;-82
2024/03/07 02:53:56;;;;;;;41.00;23.40;;;;;;;5.85;100.00;93173.03;2089177;28;20029;-80
2024/03/07 02:54:57;;;;;;;41.58;23.58;;;;;;;5.84;100.00;93176.03;2089090;28;20053;-80
2024/03/07 02:55:59;;;;;;;41.17;23.63;;;;;;;5.91;100.00;93174.13;2097479;28;20485;-81
2024/03/07 02:57:01;;;;;;;40.38;23.42;;;;;;;5.67;100.00;93167.78;2103656;28;20121;-81
2024/03/07 02:58:02;;;;;;;49.70;23.88;;;;;;;5.77;100.00;93177.59;2097391;28;20515;-80
2024/03/07 02:59:03;;;;;;;40.70;23.52;;;;;;;5.90;100.00;93172.63;2097425;28;20485;-81
2024/03/07 03:00:13;;;;;;;70.95;23.63;;;;;;;6.05;100.00;93162.75;2102940;28;20024;-81
2024/03/07 03:01:14;;;;;;;52.33;23.48;;;;;;;6.09;100.00;93163.47;2097455;28;20034;-79
2024/03/07 03:02:15;;;;;;;60.63;22.33;;;;;;;5.87;100.00;93170.72;2113234;28;20388;-81
2024/03/07 03:03:16;;;;;;;62.78;23.38;;;;;;;5.92;100.00;93164.31;2115409;28;20066;-80
2024/03/07 03:04:17;;;;;;;58.70;23.25;;;;;;;5.98;100.00;93176.81;2105609;28;20019;-82
2024/03/07 03:05:18;;;;;;;67.93;23.20;;;;;;;5.82;100.00;93171.13;2111754;28;20047;-83
2024/03/07 03:06:20;;;;;;;44.35;23.52;;;;;;;5.80;100.00;93170.78;2105757;28;20031;-83
2024/03/07 03:07:21;;;;;;;61.13;23.05;;;;;;;5.84;100.00;93168.09;2105748;28;20034;-83
2024/03/07 03:08:22;;;;;;;61.85;23.15;;;;;;;5.84;100.00;93168.88;2105475;28;20134;-81
2024/03/07 03:09:23;;;;;;;55.78;24.50;;;;;;;5.86;100.00;93163.16;2097227;28;20028;-81
2024/03/07 03:10:33;;;;;;;39.22;22.83;;;;;;;5.88;100.00;93169.59;2103312;28;20036;-81
2024/03/07 03:11:35;;;;;;;34.72;22.20;;;;;;;5.80;100.00;93157.50;2113980;28;20080;-81
2024/03/07 03:12:37;;;;;;;74.30;23.27;;;;;;;5.87;100.00;93168.06;2097346;28;20119;-83
2024/03/07 03:13:38;;;;;;;66.75;22.40;;;;;;;5.87;100.00;93162.03;2097668;28;20377;-84
2024/03/07 03:14:39;;;;;;;106.05;21.85;;;;;;;5.64;100.00;93168.53;2105879;28;20035;-82
2024/03/07 03:15:40;;;;;;;185.43;22.88;;;;;;;5.66;100.00;93162.84;2105704;28;20096;-80
2024/03/07 03:16:43;;;;;;;114.32;23.08;;;;;;;5.73;100.00;93162.81;2105625;28;20036;-79
2024/03/07 03:18:33;;;;;;;105.43;21.55;;;;;;;6.10;100.00;93157.03;2114122;28;20144;-82
2024/03/07 03:19:36;;;;;;;83.43;20.27;;;;;;;5.88;100.00;93166.94;2097980;28;20112;-83
2024/03/07 03:20:39;;;;;;;90.88;21.40;;;;;;;6.11;100.00;93158.56;2089094;28;20021;-82
2024/03/07 03:21:40;;;;;;;145.10;22.33;;;;;;;6.04;100.00;93159.34;2090822;28;20036;-80
2024/03/07 03:22:43;;;;;;;212.02;23.52;;;;;;;5.64;100.00;93163.22;2086427;28;20032;-80
2024/03/07 03:23:44;;;;;;;108.65;22.38;;;;;;;5.71;100.00;93163.22;2082807;28;20027;-82
2024/03/07 03:24:45;;;;;;;95.57;22.63;;;;;;;5.78;100.00;93163.19;2087147;28;20504;-81
2024/03/07 03:25:48;;;;;;;79.93;21.38;;;;;;;5.56;100.00;93159.81;2098737;28;20028;-80
2024/03/07 03:26:49;;;;;;;136.85;22.30;;;;;;;5.84;100.00;93160.13;2090699;28;20048;-80
2024/03/07 03:27:50;;;;;;;54.83;22.10;;;;;;;5.92;100.00;93153.69;2090570;28;20051;-81
2024/03/07 03:28:51;;;;;;;61.38;21.77;;;;;;;6.11;100.00;93158.56;2098642;28;20032;-81
2024/03/07 03:29:52;;;;;;;106.30;22.27;;;;;;;5.96;100.00;93165.81;2095518;28;20017;-82
2024/03/07 03:30:53;;;;;;;47.97;21.88;;;;;;;6.11;100.00;93158.56;2107173;28;20024;-81
2024/03/07 03:31:56;;;;;;;59.97;21.88;;;;;;;6.10;100.00;93154.38;2106999;28;20028;-80
2024/03/07 03:32:57;;;;;;;131.48;20.77;;;;;;;6.10;100.00;93157.03;2099323;28;20107;-81
2024/03/07 03:33:58;;;;;;;86.65;21.50;;;;;;;6.03;100.00;93154.41;2099035;28;20021;-80
2024/03/07 03:34:59;;;;;;;93.88;24.50;;;;;;;6.03;100.00;93157.81;2115492;28;20043;-80
2024/03/07 03:36:00;;;;;;;67.20;21.10;;;;;;;6.06;100.00;93153.66;2107213;28;20032;-79
2024/03/07 03:37:01;;;;;;;55.83;20.17;;;;;;;6.05;100.00;93154.78;2090576;28;20025;-80
2024/03/07 03:38:02;;;;;;;67.63;23.55;;;;;;;5.97;100.00;93155.94;2114890;28;20030;-81
2024/03/07 03:39:03;;;;;;;55.92;21.95;;;;;;;5.76;100.00;93157.50;2115717;28;20480;-84
2024/03/07 03:40:09;;;;;;;73.60;21.85;;;;;;;5.46;100.00;93149.25;2115758;27;20548;-81
2024/03/07 03:41:15;;;;;;;73.85;22.25;;;;;;;5.67;100.00;93146.56;2107871;28;20020;-80
2024/03/07 03:42:16;;;;;;;44.97;21.83;;;;;;;5.75;100.00;93153.34;2105271;28;20096;-80
2024/03/07 03:43:18;;;;;;;44.55;22.08;;;;;;;5.85;100.00;93156.34;2115598;28;20038;-81
2024/03/07 03:44:19;;;;;;;79.75;21.90;;;;;;;5.73;100.00;93146.91;2113392;28;20035;-80
2024/03/07 03:45:20;;;;;;;88.18;21.77;;;;;;;5.62;100.00;93149.59;2107307;28;20020;-80
2024/03/07 03:46:23;;;;;;;61.15;22.70;;;;;;;5.71;100.00;93151.84;2115745;28;20438;-81
2024/03/07 03:47:25;;;;;;;111.40;21.27;;;;;;;5.57;100.00;93155.28;2107624;28;20016;-82
2024/03/07 03:48:26;;;;;;;158.23;22.60;;;;;;;5.45;100.00;93151.16;2104139;28;20032;-80
2024/03/07 03:49:27;;;;;;;162.95;22.38;;;;;;;5.63;100.00;93156.41;2113450;28;20030;-83
2024/03/07 03:50:28;;;;;;;176.63;23.52;;;;;;;5.71;100.00;93155.25;2115644;28;20023;-81
2024/03/07 03:51:29;;;;;;;201.18;23.65;;;;;;;5.44;100.00;93152.28;2115768;27;20042;-81
2024/03/07 03:52:32;;;;;;;89.20;21.75;;;;;;;5.50;100.00;93150.75;2103561;28;20333;-81
2024/03/07 03:53:33;;;;;;;172.63;21.80;;;;;;;5.48;100.00;93149.63;2092667;28;20029;-82
2024/03/07 03:54:34;;;;;;;106.03;21.77;;;;;;;5.40;100.00;93156.84;2113902;27;20020;-81
2024/03/07 03:55:35;;;;;;;129.38;21.75;;;;;;;5.48;100.00;93153.03;2106950;28;20157;-84
2024/03/07 03:56:36;;;;;;;87.97;22.08;;;;;;;5.49;100.00;93153.81;2112406;28;20119;-84
2024/03/07 03:57:41;;;;;;;88.75;22.40;;;;;;;5.47;100.00;93151.50;2099580;28;20025;-80
2024/03/07 03:58:43;;;;;;;184.15;23.27;;;;;;;5.49;100.00;93154.56;2099372;28;20078;-82
2024/03/07 03:59:44;;;;;;;172.63;22.23;;;;;;;5.53;100.00;93151.88;2103595;28;20020;-83
2024/03/07 04:00:45;;;;;;;154.27;22.13;;;;;;;5.41;100.00;93154.94;2106887;28;20106;-82
2024/03/07 04:01:47;;;;;;;183.27;22.52;;;;;;;5.24;100.00;93149.28;2093656;28;20063;-82
2024/03/07 04:02:48;;;;;;;180.60;23.40;;;;;;;5.42;100.00;93162.50;2111402;28;20471;-83
2024/03/07 04:03:49;;;;;;;109.03;23.13;;;;;;;5.48;100.00;93157.56;2115531;28;20344;-81
2024/03/07 04:04:54;;;;;;;321.60;27.50;;;;;;;5.29;100.00;93150.78;2117653;27;20023;-83
2024/03/07 04:05:55;;;;;;;130.30;24.08;;;;;;;5.46;100.00;93144.72;2107689;28;20031;-83
2024/03/07 04:06:56;;;;;;;151.60;23.98;;;;;;;5.53;100.00;93152.66;2107350;28;20031;-84
2024/03/07 04:07:58;;;;;;;117.15;22.98;;;;;;;5.50;100.00;93150.75;2107556;28;20024;-82
2024/03/07 04:08:59;;;;;;;101.35;22.27;;;;;;;5.41;100.00;93147.00;2121489;27;20049;-81
2024/03/07 04:10:01;;;;;;;176.15;23.35;;;;;;;5.39;100.00;93149.25;2116548;27;20049;-82
2024/03/07 04:11:03;;;;;;;108.68;24.63;;;;;;;5.26;100.00;93146.25;2090334;28;20032;-80
2024/03/07 04:12:06;;;;;;;161.15;25.17;;;;;;;5.39;100.00;93152.66;2098579;28;20095;-82
2024/03/07 04:13:07;;;;;;;79.80;23.40;;;;;;;5.53;100.00;93152.66;2090756;28;20021;-83
2024/03/07 04:14:08;;;;;;;131.00;24.52;;;;;;;5.51;100.00;93156.81;2093198;28;20426;-81
2024/03/07 04:15:13;;;;;;;136.32;23.52;;;;;;;5.47;100.00;93145.47;2090560;28;20052;-82
2024/03/07 04:16:16;;;;;;;76.22;25.23;;;;;;;5.63;100.00;93147.72;2099515;28;20107;-82
2024/03/07 04:17:23;;;;;;;106.50;24.67;;;;;;;5.53;100.00;93146.56;2107974;28;20519;-83
2024/03/07 04:18:24;;;;;;;65.63;24.13;;;;;;;5.46;100.00;93155.31;2122188;27;20023;-81
2024/03/07 04:19:25;;;;;;;59.78;23.10;;;;;;;5.27;100.00;93153.06;2124575;27;20019;-84
2024/03/07 04:20:26;;;;;;;141.00;25.05;;;;;;;5.11;100.00;93148.16;2124454;27;20469;-84
2024/03/07 04:21:27;;;;;;;97.47;25.67;;;;;;;5.18;100.00;93156.13;2124377;27;20023;-82
2024/03/07 04:22:29;;;;;;;79.47;25.45;;;;;;;5.09;100.00;93157.63;2119746;27;21134;-82
2024/03/07 04:23:30;;;;;;;61.75;26.40;;;;;;;5.01;100.00;93147.03;2110275;28;20023;-82
2024/03/07 04:24:34;;;;;;;54.65;26.73;;;;;;;5.19;100.00;93154.97;2110793;28;20031;-83
2024/03/07 04:25:35;;;;;;;78.68;25.90;;;;;;;5.10;100.00;93149.31;2113100;27;20105;-82
2024/03/07 04:26:36;;;;;;;139.68;26.13;;;;;;;5.19;100.00;93162.16;2110513;28;20360;-84
2024/03/07 04:27:39;;;;;;;81.25;25.05;;;;;;;5.18;100.00;93152.69;2103367;28;20028;-81
2024/03/07 04:28:40;;;;;;;60.42;25.08;;;;;;;5.38;100.00;93148.50;2107161;28;20027;-82
2024/03/07 04:29:41;;;;;;;61.25;25.55;;;;;;;5.34;100.00;93147.00;2096665;28;20028;-84
2024/03/07 04:30:42;;;;;;;88.78;26.80;;;;;;;5.14;100.00;93147.41;2098384;28;20025;-81
2024/03/07 04:31:44;;;;;;;57.58;25.67;;;;;;;5.30;100.00;93154.94;2106930;28;20034;-83
2024/03/07 04:32:45;;;;;;;64.72;23.73;;;;;;;5.24;100.00;93145.88;2098084;28;20055;-85
2024/03/07 04:33:46;;;;;;;137.52;25.55;;;;;;;5.26;100.00;93141.69;2108281;28;20498;-81
2024/03/07 04:34:49;;;;;;;96.25;25.70;;;;;;;5.32;100.00;93139.44;2099111;28;20028;-84
2024/03/07 04:35:52;;;;;;;120.53;25.40;;;;;;;5.24;100.00;93148.53;2098705;28;20033;-83
2024/03/07 04:36:53;;;;;;;130.95;25.23;;;;;;;5.15;100.00;93145.50;2106202;28;20490;-82
2024/03/07 04:37:54;;;;;;;80.05;25.10;;;;;;;5.22;100.00;93143.63;2098411;28;20530;-80
2024/03/07 04:38:55;;;;;;;104.97;25.95;;;;;;;5.40;100.00;93137.50;2106915;28;20051;-81
2024/03/07 04:39:56;;;;;;;86.75;24.48;;;;;;;5.29;100.00;93140.19;2121078;27;20022;-81
2024/03/07 04:40:57;;;;;;;112.75;25.38;;;;;;;5.29;100.00;93137.53;2123739;27;20369;-83
2024/03/07 04:42:31;;;;;;;157.75;24.48;;;;;;;5.20;100.00;93142.47;2106832;28;20089;-83
2024/03/07 04:43:33;;;;;;;157.90;23.73;;;;;;;5.20;100.00;93142.47;2103220;28;20016;-82
2024/03/07 04:44:35;;;;;;;89.57;22.05;;;;;;;5.27;100.00;93139.84;2114732;28;20030;-83
2024/03/07 04:45:37;;;;;;;111.13;26.17;;;;;;;5.44;100.00;93132.97;2090384;28;20039;-83
2024/03/07 04:46:42;;;;;;;69.93;24.55;;;;;;;5.42;100.00;93138.66;2098458;28;20051;-82
2024/03/07 04:47:44;;;;;;;61.20;24.40;;;;;;;5.35;100.00;93146.59;2098855;28;20051;-82